createdAt,value
2024-04-13T00:01:39.653Z,26.75
2024-04-13T00:04:09.769Z,31.52
2024-04-13T00:06:39.472Z,24.80
2024-04-13T00:09:10.307Z,33.15
2024-04-13T00:11:40.097Z,25.85
2024-04-13T00:14:10.206Z,24.02
2024-04-13T00:16:37.476Z,26.35
2024-04-13T00:19:07.305Z,27.38
2024-04-13T00:21:34.649Z,31.42
2024-04-13T00:24:04.562Z,29.05
2024-04-13T00:26:33.858Z,27.98
2024-04-13T00:29:07.586Z,28.80
2024-04-13T00:31:35.115Z,30.92
2024-04-13T00:34:05.997Z,36.28
2024-04-13T00:36:36.815Z,40.55
2024-04-13T00:39:07.905Z,36.33
2024-04-13T00:41:35.189Z,36.08
2024-04-13T00:44:08.194Z,32.70
2024-04-13T00:46:35.426Z,27.13
2024-04-13T00:49:12.526Z,30.17
2024-04-13T00:51:42.596Z,31.10
2024-04-13T00:54:14.370Z,33.10
2024-04-13T00:56:42.280Z,31.25
2024-04-13T00:59:15.311Z,33.10
2024-04-13T01:01:42.956Z,28.57
2024-04-13T01:04:14.323Z,32.92
2024-04-13T01:06:41.869Z,32.65
2024-04-13T01:09:11.887Z,30.05
2024-04-13T01:11:40.028Z,28.88
2024-04-13T01:14:11.964Z,26.27
2024-04-13T01:16:41.989Z,28.52
2024-04-13T01:19:13.212Z,29.48
2024-04-13T01:21:41.326Z,26.02
2024-04-13T01:24:14.328Z,29.33
2024-04-13T01:26:42.888Z,28.38
2024-04-13T01:29:12.761Z,25.98
2024-04-13T01:31:39.966Z,24.77
2024-04-13T01:34:10.194Z,23.48
2024-04-13T01:36:37.945Z,26.77
2024-04-13T01:39:09.474Z,25.52
2024-04-13T01:41:43.697Z,27.73
2024-04-13T01:44:13.829Z,27.80
2024-04-13T01:46:41.037Z,23.13
2024-04-13T01:49:10.802Z,25.60
2024-04-13T01:51:38.402Z,21.30
2024-04-13T01:54:08.351Z,22.23
2024-04-13T01:56:35.529Z,21.80
2024-04-13T01:59:07.945Z,22.20
2024-04-13T02:01:35.537Z,19.42
2024-04-13T02:04:05.471Z,19.05
2024-04-13T02:06:32.740Z,18.30
2024-04-13T02:09:02.594Z,21.30
2024-04-13T02:11:30.683Z,19.88
2024-04-13T02:14:00.485Z,15.93
2024-04-13T02:16:30.921Z,24.15
2024-04-13T02:19:00.988Z,24.90
2024-04-13T02:21:29.381Z,19.92
2024-04-13T02:23:59.299Z,16.55
2024-04-13T02:26:26.522Z,19.17
2024-04-13T02:28:56.255Z,15.65
2024-04-13T02:31:23.391Z,20.70
2024-04-13T02:33:56.053Z,15.35
2024-04-13T02:36:23.471Z,19.95
2024-04-13T02:38:53.335Z,18.27
2024-04-13T02:41:20.517Z,15.63
2024-04-13T02:43:50.320Z,15.52
2024-04-13T02:46:18.059Z,17.80
2024-04-13T02:48:49.431Z,13.60
2024-04-13T02:51:19.486Z,20.65
2024-04-13T02:53:49.287Z,17.13
2024-04-13T02:56:16.472Z,17.25
2024-04-13T02:58:46.313Z,20.13
2024-04-13T03:01:13.703Z,20.42
2024-04-13T03:03:43.702Z,18.65
2024-04-13T03:06:13.031Z,17.13
2024-04-13T03:08:45.559Z,14.70
2024-04-13T03:11:13.613Z,17.30
2024-04-13T03:13:43.978Z,16.88
2024-04-13T03:16:11.886Z,17.52
2024-04-13T03:18:43.532Z,16.35
2024-04-13T03:21:11.463Z,16.65
2024-04-13T03:23:46.107Z,21.80
2024-04-13T03:26:13.598Z,16.63
2024-04-13T03:28:44.433Z,13.95
2024-04-13T03:31:11.709Z,16.52
2024-04-13T03:33:41.519Z,14.38
2024-04-13T03:36:09.070Z,14.65
2024-04-13T03:38:38.942Z,15.27
2024-04-13T03:41:11.492Z,13.55
2024-04-13T03:43:41.624Z,19.15
2024-04-13T03:46:08.859Z,19.00
2024-04-13T03:48:43.563Z,20.23
2024-04-13T03:51:11.778Z,18.40
2024-04-13T03:53:42.052Z,13.05
2024-04-13T03:56:11.931Z,16.13
2024-04-13T03:58:42.840Z,13.43
2024-04-13T04:01:10.094Z,14.90
2024-04-13T04:03:40.259Z,14.50
2024-04-13T04:06:07.886Z,15.02
2024-04-13T04:08:37.805Z,15.80
2024-04-13T04:11:05.140Z,19.33
2024-04-13T04:13:37.635Z,16.52
2024-04-13T04:16:05.550Z,18.70
2024-04-13T04:18:35.406Z,19.77
2024-04-13T04:21:03.420Z,16.67
2024-04-13T04:23:34.226Z,17.20
2024-04-13T04:26:03.332Z,14.55
2024-04-13T04:28:33.164Z,13.95
2024-04-13T04:31:13.841Z,18.75
2024-04-13T04:33:44.174Z,16.77
2024-04-13T04:36:11.544Z,15.70
2024-04-13T04:38:41.470Z,19.33
2024-04-13T04:41:08.673Z,13.77
2024-04-13T04:43:38.428Z,14.10
2024-04-13T04:46:05.592Z,15.82
2024-04-13T04:48:38.340Z,19.95
2024-04-13T04:51:06.610Z,15.60
2024-04-13T04:53:36.993Z,14.98
2024-04-13T04:56:04.676Z,15.73
2024-04-13T04:58:34.477Z,19.45
2024-04-13T05:01:02.936Z,16.10
2024-04-13T05:03:33.123Z,16.73
2024-04-13T05:06:04.426Z,17.98
2024-04-13T05:08:34.242Z,16.85
2024-04-13T05:11:01.492Z,19.63
2024-04-13T05:13:32.489Z,16.20
2024-04-13T05:15:59.671Z,17.08
2024-04-13T05:18:29.661Z,13.98
2024-04-13T05:20:56.970Z,16.95
2024-04-13T05:23:29.461Z,18.52
2024-04-13T05:25:56.707Z,16.17
2024-04-13T05:28:27.840Z,19.08
2024-04-13T05:30:57.785Z,20.58
2024-04-13T05:33:28.632Z,21.27
2024-04-13T05:35:58.654Z,20.70
2024-04-13T05:38:31.576Z,17.95
2024-04-13T05:40:58.794Z,17.73
2024-04-13T05:43:28.715Z,17.77
2024-04-13T05:45:56.357Z,28.77
2024-04-13T05:48:26.339Z,17.67
2024-04-13T05:50:57.650Z,14.07
2024-04-13T05:53:32.410Z,17.30
2024-04-13T05:56:05.853Z,14.17
2024-04-13T05:58:36.933Z,12.02
2024-04-13T06:01:04.524Z,12.43
2024-04-13T06:03:34.942Z,16.70
2024-04-13T06:06:02.358Z,14.98
2024-04-13T06:08:34.836Z,11.07
2024-04-13T06:11:02.184Z,12.20
2024-04-13T06:13:32.037Z,14.25
2024-04-13T06:16:03.395Z,12.45
2024-04-13T06:18:33.348Z,13.35
2024-04-13T06:21:01.680Z,10.77
2024-04-13T06:23:34.163Z,15.07
2024-04-13T06:26:01.426Z,17.70
2024-04-13T06:28:31.640Z,12.43
2024-04-13T06:30:58.983Z,8.85
2024-04-13T06:33:29.095Z,12.55
2024-04-13T06:35:56.478Z,10.75
2024-04-13T06:38:29.223Z,13.07
2024-04-13T06:40:59.031Z,17.27
2024-04-13T06:43:28.825Z,12.20
2024-04-13T06:45:56.043Z,12.93
2024-04-13T06:48:25.941Z,13.60
2024-04-13T06:50:53.461Z,16.83
2024-04-13T06:53:24.664Z,12.60
2024-04-13T06:55:51.846Z,14.98
2024-04-13T06:58:25.258Z,10.88
2024-04-13T07:00:57.074Z,14.77
2024-04-13T07:03:27.418Z,10.77
2024-04-13T07:05:59.238Z,9.93
2024-04-13T07:08:29.258Z,14.80
2024-04-13T07:10:57.378Z,11.07
2024-04-13T07:13:30.002Z,11.00
2024-04-13T07:15:57.340Z,12.30
2024-04-13T07:18:27.192Z,5.13
2024-04-13T07:20:54.392Z,9.18
2024-04-13T07:23:24.235Z,8.57
2024-04-13T07:25:58.195Z,10.75
2024-04-13T07:28:31.324Z,32.60
2024-04-13T07:30:58.996Z,55.85
2024-04-13T07:33:30.663Z,12.10
2024-04-13T07:35:58.197Z,18.48
2024-04-13T07:38:28.812Z,9.57
2024-04-13T07:40:55.955Z,5.30
2024-04-13T07:43:26.028Z,7.53
2024-04-13T07:45:55.968Z,5.05
2024-04-13T07:48:29.182Z,10.48
2024-04-13T07:50:57.362Z,12.13
2024-04-13T07:53:31.955Z,17.48
2024-04-13T07:55:59.361Z,10.07
2024-04-13T07:58:29.153Z,8.80
2024-04-13T08:00:59.122Z,7.57
2024-04-13T08:03:29.111Z,50.80
2024-04-13T08:05:56.407Z,5.43
2024-04-13T08:08:26.929Z,8.73
2024-04-13T08:10:54.231Z,3.78
2024-04-13T08:13:24.039Z,12.20
2024-04-13T08:15:51.319Z,16.48
2024-04-13T08:18:23.838Z,29.23
2024-04-13T08:20:51.480Z,9.20
2024-04-13T08:23:21.330Z,7.50
2024-04-13T08:25:48.528Z,4.00
2024-04-13T08:28:18.349Z,7.40
2024-04-13T08:30:45.757Z,16.75
2024-04-13T08:33:15.648Z,6.60
2024-04-13T08:35:45.688Z,6.05
2024-04-13T08:38:18.072Z,7.40
2024-04-13T08:40:50.483Z,4.85
2024-04-13T08:43:20.371Z,8.20
2024-04-13T08:45:48.006Z,6.90
2024-04-13T08:48:19.170Z,3.28
2024-04-13T08:50:50.635Z,4.68
2024-04-13T08:53:21.465Z,5.55
2024-04-13T08:55:49.740Z,5.03
2024-04-13T08:58:21.931Z,5.45
2024-04-13T09:00:53.555Z,5.78
2024-04-13T09:03:24.393Z,6.18
2024-04-13T09:05:54.285Z,6.88
2024-04-13T09:08:26.556Z,5.85
2024-04-13T09:10:56.389Z,6.35
2024-04-13T09:13:26.262Z,4.13
2024-04-13T09:15:53.456Z,7.18
2024-04-13T09:18:23.458Z,10.25
2024-04-13T09:20:55.306Z,5.35
2024-04-13T09:23:25.200Z,7.97
2024-04-13T09:26:01.761Z,10.13
2024-04-13T09:28:41.595Z,6.80
2024-04-13T09:31:10.656Z,5.10
2024-04-13T09:33:41.761Z,9.07
2024-04-13T09:36:11.647Z,9.00
2024-04-13T09:38:41.453Z,6.03
2024-04-13T09:41:08.812Z,5.07
2024-04-13T09:43:39.635Z,5.13
2024-04-13T09:46:06.863Z,5.82
2024-04-13T09:48:37.770Z,5.40
2024-04-13T09:51:05.665Z,5.20
2024-04-13T09:53:38.609Z,5.43
2024-04-13T09:58:36.216Z,3.20
2024-04-13T10:01:04.716Z,6.57
2024-04-13T10:03:34.996Z,7.90
2024-04-13T10:06:10.735Z,4.40
2024-04-13T10:08:43.531Z,5.85
2024-04-13T10:11:12.471Z,6.82
2024-04-13T10:13:45.781Z,4.95
2024-04-13T10:16:15.701Z,11.00
2024-04-13T10:18:46.983Z,7.10
2024-04-13T10:21:15.312Z,5.13
2024-04-13T10:23:49.220Z,8.23
2024-04-13T10:26:26.363Z,2.83
2024-04-13T10:29:00.867Z,6.20
2024-04-13T10:31:29.499Z,7.45
2024-04-13T10:34:00.519Z,5.78
2024-04-13T10:36:28.698Z,4.47
2024-04-13T10:39:04.627Z,5.85
2024-04-13T10:41:32.948Z,7.22
2024-04-13T10:44:03.297Z,5.50
2024-04-13T10:46:30.902Z,3.47
2024-04-13T10:49:01.394Z,6.22
2024-04-13T10:51:28.634Z,7.50
2024-04-13T10:54:02.319Z,6.57
2024-04-13T10:56:29.703Z,4.95
2024-04-13T10:58:59.871Z,6.00
2024-04-13T11:01:27.072Z,10.50
2024-04-13T11:04:05.715Z,5.35
2024-04-13T11:06:33.224Z,4.78
2024-04-13T11:09:05.779Z,5.97
2024-04-13T11:11:33.015Z,6.70
2024-04-13T11:14:02.942Z,2.78
2024-04-13T11:16:30.198Z,4.03
2024-04-13T11:19:00.187Z,7.30
2024-04-13T11:21:28.059Z,4.47
2024-04-13T11:23:58.547Z,5.75
2024-04-13T11:26:32.349Z,3.22
2024-04-13T11:29:02.457Z,6.30
2024-04-13T11:31:29.938Z,4.03
2024-04-13T11:33:59.913Z,8.00
2024-04-13T11:36:27.176Z,5.13
2024-04-13T11:39:03.468Z,5.47
2024-04-13T11:41:37.003Z,5.22
2024-04-13T11:44:08.443Z,4.00
2024-04-13T11:46:35.620Z,5.75
2024-04-13T11:49:05.893Z,8.52
2024-04-13T11:51:33.207Z,5.82
2024-04-13T11:54:03.116Z,6.10
2024-04-13T11:56:40.860Z,4.13
2024-04-13T11:59:10.645Z,4.90
2024-04-13T12:01:37.844Z,5.95
2024-04-13T12:04:07.984Z,5.57
2024-04-13T12:06:35.365Z,4.63
2024-04-13T12:09:06.101Z,5.32
2024-04-13T12:11:36.749Z,2.28
2024-04-13T12:14:07.479Z,12.07
2024-04-13T12:16:34.822Z,8.75
2024-04-13T12:19:05.384Z,4.28
2024-04-13T12:21:33.352Z,4.93
2024-04-13T12:24:05.132Z,5.90
2024-04-13T12:26:32.442Z,6.85
2024-04-13T12:29:04.969Z,6.65
2024-04-13T12:31:32.149Z,4.43
2024-04-13T12:34:01.970Z,6.60
2024-04-13T12:36:29.217Z,3.63
2024-04-13T12:38:59.070Z,4.53
2024-04-13T12:41:26.233Z,4.10
2024-04-13T12:43:56.007Z,5.43
2024-04-13T12:46:25.878Z,4.07
2024-04-13T12:48:55.736Z,6.13
2024-04-13T12:51:23.022Z,4.82
2024-04-13T12:53:52.810Z,5.95
2024-04-13T12:56:20.018Z,4.60
2024-04-13T12:58:52.586Z,8.23
2024-04-13T13:01:20.452Z,7.55
2024-04-13T13:03:53.144Z,4.65
2024-04-13T13:08:50.056Z,6.57
2024-04-13T13:11:17.271Z,3.17
2024-04-13T13:13:47.093Z,10.02
2024-04-13T13:16:14.432Z,6.63
2024-04-13T13:18:44.231Z,3.30
2024-04-13T13:21:14.092Z,6.57
2024-04-13T13:23:45.588Z,8.45
2024-04-13T13:26:13.534Z,4.28
2024-04-13T13:28:43.327Z,5.10
2024-04-13T13:31:10.523Z,6.13
2024-04-13T13:33:40.355Z,2.65
2024-04-13T13:36:07.932Z,6.63
2024-04-13T13:38:40.715Z,8.23
2024-04-13T13:43:37.450Z,4.00
2024-04-13T13:46:04.993Z,3.53
2024-04-13T13:48:34.925Z,7.65
2024-04-13T13:51:02.418Z,4.53
2024-04-13T13:53:32.216Z,5.40
2024-04-13T13:56:02.029Z,3.42
2024-04-13T13:58:31.873Z,13.90
2024-04-13T14:01:04.871Z,5.07
2024-04-13T14:03:34.911Z,3.40
2024-04-13T14:06:02.361Z,4.53
2024-04-13T14:08:32.365Z,4.03
2024-04-13T14:11:02.249Z,11.38
2024-04-13T14:13:32.195Z,7.85
2024-04-13T14:16:00.421Z,3.65
2024-04-13T14:18:30.368Z,7.50
2024-04-13T14:21:00.662Z,5.40
2024-04-13T14:23:32.123Z,6.20
2024-04-13T14:26:01.927Z,10.13
2024-04-13T14:28:31.695Z,3.28
2024-04-13T14:31:01.996Z,7.85
2024-04-13T14:33:33.022Z,5.88
2024-04-13T14:36:00.384Z,4.53
2024-04-13T14:38:30.159Z,5.95
2024-04-13T14:40:57.303Z,9.45
2024-04-13T14:43:29.727Z,10.13
2024-04-13T14:45:57.719Z,6.20
2024-04-13T14:48:28.715Z,6.90
2024-04-13T14:50:56.075Z,6.30
2024-04-13T14:53:26.136Z,4.57
2024-04-13T14:55:55.690Z,9.35
2024-04-13T14:58:25.655Z,6.15
2024-04-13T15:01:02.347Z,7.57
2024-04-13T15:03:32.362Z,5.43
2024-04-13T15:05:59.658Z,4.78
2024-04-13T15:08:29.482Z,5.85
2024-04-13T15:10:59.905Z,7.13
2024-04-13T15:13:29.768Z,8.93
2024-04-13T15:15:59.596Z,5.43
2024-04-13T15:18:29.594Z,9.57
2024-04-13T15:20:59.847Z,8.68
2024-04-13T15:23:29.730Z,6.43
2024-04-13T15:25:56.896Z,8.55
2024-04-13T15:28:26.691Z,5.32
2024-04-13T15:30:54.043Z,8.35
2024-04-13T15:33:26.706Z,4.93
2024-04-13T15:35:53.894Z,8.43
2024-04-13T15:38:23.655Z,11.02
2024-04-13T15:40:51.465Z,5.25
2024-04-13T15:43:21.312Z,6.35
2024-04-13T15:45:53.081Z,7.18
2024-04-13T15:48:23.495Z,10.15
2024-04-13T15:50:54.262Z,6.18
2024-04-13T15:53:24.128Z,4.78
2024-04-13T15:55:51.288Z,6.32
2024-04-13T15:58:21.916Z,4.13
2024-04-13T16:00:49.213Z,7.93
2024-04-13T16:03:19.130Z,3.83
2024-04-13T16:05:47.565Z,4.22
2024-04-13T16:08:19.953Z,4.25
2024-04-13T16:10:47.217Z,12.20
2024-04-13T16:13:16.984Z,9.48
2024-04-13T16:15:44.350Z,7.22
2024-04-13T16:18:14.323Z,8.90
2024-04-13T16:20:41.590Z,6.55
2024-04-13T16:23:11.369Z,9.18
2024-04-13T16:25:41.555Z,8.52
2024-04-13T16:28:11.498Z,16.30
2024-04-13T16:30:39.217Z,6.00
2024-04-13T16:33:11.581Z,8.13
2024-04-13T16:35:39.812Z,7.68
2024-04-13T16:38:09.569Z,4.43
2024-04-13T16:40:36.748Z,6.70
2024-04-13T16:43:09.216Z,7.75
2024-04-13T16:45:36.407Z,8.05
2024-04-13T16:48:06.522Z,6.13
2024-04-13T16:50:33.726Z,6.55
2024-04-13T16:53:03.473Z,16.67
2024-04-13T16:55:30.643Z,5.97
2024-04-13T16:58:00.438Z,9.73
2024-04-13T17:00:30.256Z,9.68
2024-04-13T17:03:01.565Z,6.72
2024-04-13T17:05:28.910Z,6.53
2024-04-13T17:07:58.688Z,11.20
2024-04-13T17:10:25.905Z,9.23
2024-04-13T17:12:55.702Z,4.93
2024-04-13T17:15:23.446Z,7.57
2024-04-13T17:17:59.808Z,13.43
2024-04-13T17:20:27.098Z,10.13
2024-04-13T17:22:56.859Z,10.60
2024-04-13T17:25:24.024Z,6.45
2024-04-13T17:27:53.903Z,10.10
2024-04-13T17:30:21.226Z,7.72
2024-04-13T17:32:51.984Z,4.78
2024-04-13T17:35:21.827Z,8.50
2024-04-13T17:37:51.661Z,13.07
2024-04-13T17:40:18.932Z,6.07
2024-04-13T17:42:48.820Z,5.88
2024-04-13T17:45:16.456Z,5.22
2024-04-13T17:47:46.333Z,8.25
2024-04-13T17:50:13.800Z,8.50
2024-04-13T17:52:46.276Z,10.30
2024-04-13T17:55:13.557Z,12.07
2024-04-13T17:57:45.537Z,15.15
2024-04-13T18:00:13.510Z,11.18
2024-04-13T18:02:43.665Z,7.22
2024-04-13T18:05:10.963Z,17.33
2024-04-13T18:07:40.896Z,7.85
2024-04-13T18:10:11.071Z,8.38
2024-04-13T18:12:41.267Z,9.23
2024-04-13T18:15:08.813Z,8.98
2024-04-13T18:17:38.766Z,9.80
2024-04-13T18:20:07.079Z,10.55
2024-04-13T18:22:36.896Z,11.88
2024-04-13T18:25:04.294Z,10.10
2024-04-13T18:27:37.006Z,11.90
2024-04-13T18:30:05.254Z,7.68
2024-04-13T18:32:35.201Z,13.77
2024-04-13T18:35:03.185Z,13.30
2024-04-13T18:37:33.224Z,5.90
2024-04-13T18:40:00.687Z,7.78
2024-04-13T18:42:31.323Z,10.80
2024-04-13T18:45:01.680Z,9.77
2024-04-13T18:47:31.663Z,14.00
2024-04-13T18:50:01.229Z,11.23
2024-04-13T18:52:32.624Z,15.23
2024-04-13T18:54:59.960Z,8.27
2024-04-13T18:57:30.463Z,8.55
2024-04-13T19:00:00.527Z,12.20
2024-04-13T19:02:30.424Z,9.80
2024-04-13T19:04:57.670Z,27.80
2024-04-13T19:07:27.728Z,9.13
2024-04-13T19:09:55.028Z,12.35
2024-04-13T19:12:27.354Z,5.95
2024-04-13T19:14:54.669Z,7.95
2024-04-13T19:17:27.342Z,10.95
2024-04-13T19:19:55.992Z,12.27
2024-04-13T19:22:26.504Z,9.25
2024-04-13T19:24:54.015Z,7.15
2024-04-13T19:27:23.927Z,7.72
2024-04-13T19:29:52.430Z,10.95
2024-04-13T19:32:23.134Z,9.20
2024-04-13T19:34:53.124Z,10.70
2024-04-13T19:37:23.327Z,9.88
2024-04-13T19:39:50.986Z,8.95
2024-04-13T19:42:21.297Z,8.25
2024-04-13T19:44:48.486Z,9.85
2024-04-13T19:47:19.649Z,16.30
2024-04-13T19:49:48.838Z,11.57
2024-04-13T19:52:21.361Z,12.73
2024-04-13T19:54:48.608Z,10.10
2024-04-13T19:57:18.387Z,10.18
2024-04-13T19:59:45.622Z,8.15
2024-04-13T20:02:15.408Z,12.13
2024-04-13T20:04:43.837Z,10.98
2024-04-13T20:07:13.923Z,11.50
2024-04-13T20:09:46.160Z,12.10
2024-04-13T20:12:19.663Z,14.25
2024-04-13T20:15:07.972Z,15.85
2024-04-13T20:17:54.222Z,16.45
2024-04-13T20:20:24.635Z,9.68
2024-04-13T20:22:54.586Z,11.60
2024-04-13T20:25:27.191Z,11.95
2024-04-13T20:27:57.332Z,12.73
2024-04-13T20:30:27.445Z,12.30
2024-04-13T20:32:55.390Z,13.63
2024-04-13T20:35:25.181Z,10.95
2024-04-13T20:37:52.412Z,14.05
2024-04-13T20:40:22.250Z,13.82
2024-04-13T20:42:52.048Z,10.70
2024-04-13T20:45:21.882Z,17.50
2024-04-13T20:47:49.152Z,13.98
2024-04-13T20:50:19.062Z,15.40
2024-04-13T20:52:56.582Z,11.73
2024-04-13T20:55:30.234Z,13.60
2024-04-13T20:58:00.157Z,13.00
2024-04-13T21:00:32.158Z,13.93
2024-04-13T21:02:59.803Z,11.30
2024-04-13T21:05:34.515Z,11.25
2024-04-13T21:08:02.022Z,14.90
2024-04-13T21:10:32.405Z,15.20
2024-04-13T21:13:02.594Z,13.52
2024-04-13T21:15:36.310Z,14.02
2024-04-13T21:18:05.019Z,12.98
2024-04-13T21:20:34.972Z,14.35
2024-04-13T21:23:02.728Z,9.68
2024-04-13T21:25:32.538Z,13.32
2024-04-13T21:28:02.621Z,14.23
2024-04-13T21:30:32.699Z,15.25
2024-04-13T21:32:59.975Z,11.40
2024-04-13T21:35:29.763Z,14.93
2024-04-13T21:37:59.102Z,14.27
2024-04-13T21:40:29.196Z,11.52
2024-04-13T21:42:56.430Z,13.02
2024-04-13T21:45:28.894Z,10.88
2024-04-13T21:47:56.126Z,9.90
2024-04-13T21:50:26.830Z,11.35
2024-04-13T21:52:54.038Z,10.52
2024-04-13T21:55:23.814Z,21.40
2024-04-13T21:57:51.070Z,15.18
2024-04-13T22:00:20.926Z,18.50
2024-04-13T22:02:50.718Z,13.90
2024-04-13T22:05:21.906Z,12.70
2024-04-13T22:07:49.100Z,12.27
2024-04-13T22:10:21.243Z,14.63
2024-04-13T22:12:49.208Z,16.38
2024-04-13T22:15:19.065Z,14.27
2024-04-13T22:17:46.349Z,12.65
2024-04-13T22:20:21.315Z,20.27
2024-04-13T22:22:48.502Z,17.45
2024-04-13T22:25:22.542Z,16.80
2024-04-13T22:27:50.017Z,18.05
2024-04-13T22:30:20.327Z,19.92
2024-04-13T22:32:47.819Z,14.55
2024-04-13T22:35:20.727Z,11.38
2024-04-13T22:37:47.902Z,9.63
2024-04-13T22:40:19.668Z,12.70
2024-04-13T22:42:46.910Z,11.93
2024-04-13T22:45:17.023Z,18.13
2024-04-13T22:47:44.361Z,18.08
2024-04-13T22:50:14.588Z,17.65
2024-04-13T22:52:44.379Z,12.80
2024-04-13T22:55:14.205Z,12.20
2024-04-13T22:57:41.463Z,11.88
2024-04-13T23:00:12.400Z,13.02
2024-04-13T23:02:39.787Z,13.70
2024-04-13T23:05:12.649Z,16.77
2024-04-13T23:07:40.768Z,19.83
2024-04-13T23:10:13.461Z,10.63
2024-04-13T23:12:41.044Z,13.50
2024-04-13T23:15:11.808Z,14.80
2024-04-13T23:17:39.088Z,12.75
2024-04-13T23:20:09.891Z,16.63
2024-04-13T23:22:37.160Z,14.18
2024-04-13T23:25:07.608Z,15.45
2024-04-13T23:27:37.824Z,19.35
2024-04-13T23:30:08.693Z,21.40
2024-04-13T23:32:36.452Z,15.70
2024-04-13T23:35:06.314Z,18.90
2024-04-13T23:37:33.468Z,18.83
2024-04-13T23:40:03.297Z,23.83
2024-04-13T23:42:30.548Z,16.17
2024-04-13T23:45:03.125Z,17.20
2024-04-13T23:47:31.401Z,15.13
2024-04-13T23:50:01.370Z,18.48
2024-04-13T23:52:30.676Z,14.68
2024-04-13T23:55:00.554Z,12.40
2024-04-13T23:57:27.824Z,15.20
2024-04-13T23:59:57.680Z,16.17
